Time;durP1;ratioP1;P1;durP2;ratioP2;P2;SDS_P1;SDS_P2;PMS_P1;PMS_P2;Temp;Humidity;BMP_temperature;BMP_pressure;BME280_temperature;BME280_humidity;BME280_pressure;Samples;Min_cycle;Max_cycle;Signal;HPM_P1;HPM_P2
2023/07/22 00:02:27;;;;;;;0.60;0.50;;;;;;;26.20;89.32;95337.06;5091679;28;20439;-57
2023/07/22 00:04:56;;;;;;;0.57;0.40;;;;;;;25.85;92.08;95324.56;5092824;28;20776;-56
2023/07/22 00:07:24;;;;;;;0.50;0.40;;;;;;;26.23;92.10;95348.00;5092276;28;20533;-56
2023/07/22 00:09:52;;;;;;;0.80;0.50;;;;;;;26.27;91.48;95337.94;5091998;28;20435;-56
2023/07/22 00:12:25;;;;;;;1.00;1.00;;;;;;;26.36;90.89;95333.00;5067027;28;20932;-56
2023/07/22 00:14:54;;;;;;;0.60;0.50;;;;;;;26.46;89.95;95337.78;5092396;28;20429;-57
2023/07/22 00:17:23;;;;;;;0.50;0.50;;;;;;;26.55;87.94;95337.53;5092884;28;20448;-56
2023/07/22 00:19:52;;;;;;;0.80;0.57;;;;;;;26.47;90.14;95336.66;5091743;28;20523;-57
2023/07/22 00:22:22;;;;;;;0.40;0.30;;;;;;;26.16;89.79;95279.97;5092374;28;20464;-57
2023/07/22 00:24:50;;;;;;;2.23;0.60;;;;;;;26.58;88.14;95347.66;5092593;28;20843;-57
2023/07/22 00:27:19;;;;;;;0.63;0.63;;;;;;;26.47;89.50;95347.53;5092372;28;20507;-57
2023/07/22 00:29:48;;;;;;;0.83;0.80;;;;;;;26.34;90.49;95342.69;5092022;28;20469;-57
2023/07/22 00:32:17;;;;;;;0.50;0.30;;;;;;;25.94;93.92;95343.28;5092211;28;20978;-57
2023/07/22 00:34:46;;;;;;;0.60;0.60;;;;;;;26.05;93.76;95346.94;5092294;28;20490;-57
2023/07/22 00:37:14;;;;;;;0.50;0.30;;;;;;;26.18;92.80;95351.03;5092546;28;20449;-56
2023/07/22 00:39:42;;;;;;;0.60;0.30;;;;;;;26.07;93.53;95349.28;5092329;28;20433;-57
2023/07/22 00:42:11;;;;;;;0.93;0.57;;;;;;;25.93;96.02;95339.00;5092217;28;20493;-56
2023/07/22 00:44:39;;;;;;;0.50;0.40;;;;;;;26.02;95.92;95353.09;5092246;28;20517;-57
2023/07/22 00:47:09;;;;;;;0.60;0.50;;;;;;;26.00;96.36;95352.69;5092176;28;20553;-57
2023/07/22 00:49:38;;;;;;;0.47;0.37;;;;;;;25.92;96.34;95342.88;5092006;28;20505;-57
2023/07/22 00:52:06;;;;;;;1.20;0.50;;;;;;;25.90;96.56;95350.59;5091529;28;20468;-56
2023/07/22 00:54:35;;;;;;;0.53;0.40;;;;;;;25.86;97.71;95360.59;5092243;28;20448;-57
2023/07/22 00:57:03;;;;;;;0.60;0.60;;;;;;;25.95;97.49;95361.16;5091215;28;20468;-56
2023/07/22 00:59:32;;;;;;;0.60;0.47;;;;;;;26.03;96.78;95356.59;5091600;28;20996;-57
2023/07/22 01:02:01;;;;;;;0.80;0.70;;;;;;;26.08;96.11;95351.66;5091549;28;20513;-56
2023/07/22 01:04:35;;;;;;;1.47;0.30;;;;;;;26.11;95.04;95347.41;5092160;28;20465;-57
2023/07/22 01:07:06;;;;;;;0.60;0.60;;;;;;;26.14;93.91;95350.19;5091216;28;20923;-57
2023/07/22 01:09:36;;;;;;;0.50;0.40;;;;;;;26.18;93.30;95355.69;5090666;28;20440;-57
2023/07/22 01:12:06;;;;;;;0.60;0.57;;;;;;;26.15;94.69;95361.84;5091368;28;20433;-57
2023/07/22 01:14:35;;;;;;;0.60;0.60;;;;;;;26.12;93.89;95357.94;5091458;28;20523;-57
2023/07/22 01:17:04;;;;;;;0.50;0.40;;;;;;;25.88;93.11;95358.34;5091084;28;20948;-56
2023/07/22 01:19:35;;;;;;;0.53;0.53;;;;;;;25.94;95.17;95366.94;5091806;28;20440;-56
2023/07/22 01:22:07;;;;;;;0.60;0.50;;;;;;;26.08;94.88;95361.72;5091985;28;20464;-56
2023/07/22 01:24:37;;;;;;;0.47;0.30;;;;;;;26.03;93.65;95365.53;5091526;28;20486;-56
2023/07/22 01:27:08;;;;;;;0.97;0.93;;;;;;;25.96;93.79;95359.97;5091472;28;20490;-57
2023/07/22 01:29:36;;;;;;;0.70;0.50;;;;;;;25.70;94.12;95355.31;5090914;28;20440;-56
2023/07/22 01:32:05;;;;;;;1.43;0.90;;;;;;;25.70;97.46;95368.91;5095769;28;20990;-57
2023/07/22 01:34:34;;;;;;;0.67;0.40;;;;;;;25.70;98.03;95368.13;5095676;28;20429;-56
2023/07/22 01:37:04;;;;;;;0.80;0.60;;;;;;;25.87;96.21;95367.63;5095726;28;20497;-57
2023/07/22 01:39:32;;;;;;;0.87;0.70;;;;;;;25.93;96.52;95359.94;5095451;28;20465;-56
2023/07/22 01:42:02;;;;;;;0.50;0.40;;;;;;;25.90;96.04;95361.47;5095870;28;20952;-57
2023/07/22 01:44:31;;;;;;;0.50;0.30;;;;;;;25.92;96.02;95364.59;5094404;28;20520;-57
2023/07/22 01:47:03;;;;;;;1.03;0.50;;;;;;;25.78;97.61;95367.06;5094996;28;20475;-57
2023/07/22 01:49:31;;;;;;;0.60;0.47;;;;;;;25.80;98.08;95362.88;5095437;28;20440;-57
2023/07/22 01:52:00;;;;;;;0.50;0.30;;;;;;;25.85;96.62;95361.78;5087687;28;20440;-57
2023/07/22 01:54:28;;;;;;;2.93;0.53;;;;;;;25.74;98.08;95363.53;5095457;28;20455;-57
2023/07/22 01:56:57;;;;;;;0.70;0.50;;;;;;;25.73;97.58;95362.75;5094897;28;20440;-56
2023/07/22 01:59:26;;;;;;;0.53;0.50;;;;;;;25.62;98.72;95361.81;5094990;28;20594;-56
2023/07/22 02:01:55;;;;;;;1.10;0.30;;;;;;;25.70;97.72;95368.91;5094890;28;20998;-56
2023/07/22 02:04:23;;;;;;;0.50;0.33;;;;;;;25.54;99.40;95375.63;5095235;28;20952;-56
2023/07/22 02:06:52;;;;;;;0.60;0.40;;;;;;;25.51;99.89;95365.47;5094504;28;20495;-56
2023/07/22 02:09:21;;;;;;;1.83;0.50;;;;;;;25.48;100.00;95377.84;5095127;28;20449;-56
2023/07/22 02:11:50;;;;;;;0.77;0.70;;;;;;;25.51;100.00;95381.75;5094590;28;20440;-56
2023/07/22 02:14:18;;;;;;;1.03;0.60;;;;;;;25.51;100.00;95382.56;5095107;28;20881;-56
2023/07/22 02:16:48;;;;;;;0.53;0.43;;;;;;;25.35;100.00;95386.50;5094675;28;20501;-56
2023/07/22 02:19:16;;;;;;;1.13;0.67;;;;;;;25.35;100.00;95391.94;5094883;28;20998;-56
2023/07/22 02:21:44;;;;;;;0.63;0.50;;;;;;;25.53;100.00;95387.59;5094667;28;20490;-56
2023/07/22 02:24:15;;;;;;;0.50;0.40;;;;;;;25.31;100.00;95391.06;5095095;28;20967;-56
2023/07/22 02:26:45;;;;;;;0.50;0.40;;;;;;;25.47;100.00;95380.94;5080702;28;20464;-56
2023/07/22 02:29:13;;;;;;;0.70;0.60;;;;;;;25.24;100.00;95378.19;5095102;28;20456;-56
2023/07/22 02:31:41;;;;;;;0.80;0.80;;;;;;;25.12;100.00;95376.41;5094522;28;20444;-56
2023/07/22 02:34:11;;;;;;;1.00;1.00;;;;;;;25.15;100.00;95372.19;5094451;28;20817;-56
2023/07/22 02:36:40;;;;;;;1.83;0.70;;;;;;;25.19;100.00;95376.56;5067870;28;20883;-57
2023/07/22 02:39:09;;;;;;;0.40;0.30;;;;;;;25.15;100.00;95381.13;5094311;28;20432;-56
2023/07/22 02:41:37;;;;;;;1.47;1.37;;;;;;;25.31;100.00;95377.50;5093951;28;20436;-57
2023/07/22 02:44:06;;;;;;;0.90;0.50;;;;;;;25.23;100.00;95376.59;5094647;28;20444;-56
2023/07/22 02:46:34;;;;;;;0.50;0.40;;;;;;;25.13;100.00;95386.13;5093874;28;20428;-57
2023/07/22 02:49:03;;;;;;;0.47;0.40;;;;;;;25.19;100.00;95389.31;5094017;28;20951;-57
2023/07/22 02:51:32;;;;;;;0.80;0.80;;;;;;;24.91;100.00;95402.34;5094276;28;20441;-57
2023/07/22 02:54:01;;;;;;;1.10;1.00;;;;;;;25.06;100.00;95388.72;5094505;28;20816;-56
2023/07/22 02:56:29;;;;;;;0.60;0.60;;;;;;;24.98;100.00;95392.44;5094536;28;20449;-57
2023/07/22 02:58:58;;;;;;;0.87;0.87;;;;;;;25.17;100.00;95397.06;5093667;28;20437;-57
2023/07/22 03:01:26;;;;;;;0.70;0.50;;;;;;;25.45;100.00;95391.34;5093758;28;20506;-57
2023/07/22 03:03:54;;;;;;;3.57;1.67;;;;;;;24.59;100.00;95399.75;5093937;28;20978;-57
2023/07/22 03:06:23;;;;;;;1.27;1.17;;;;;;;24.27;100.00;95402.91;5093831;28;20483;-57
2023/07/22 03:08:54;;;;;;;1.33;1.23;;;;;;;23.80;100.00;95400.28;5094130;28;20498;-57
2023/07/22 03:11:24;;;;;;;2.07;1.87;;;;;;;23.36;100.00;95394.94;5094088;28;20439;-57
2023/07/22 03:13:53;;;;;;;0.80;0.77;;;;;;;23.40;100.00;95405.88;5093760;28;20475;-57
2023/07/22 03:16:21;;;;;;;1.30;1.20;;;;;;;23.86;100.00;95404.25;5093635;28;20436;-57
2023/07/22 03:18:50;;;;;;;0.70;0.60;;;;;;;24.33;100.00;95410.44;5093939;28;20432;-57
2023/07/22 03:21:18;;;;;;;1.10;0.50;;;;;;;23.97;100.00;95359.28;5093258;28;20432;-57
2023/07/22 03:23:46;;;;;;;0.60;0.57;;;;;;;24.62;100.00;95417.22;5093460;28;20443;-57
2023/07/22 03:26:16;;;;;;;0.87;0.87;;;;;;;24.44;100.00;95419.56;5093258;28;21006;-57
2023/07/22 03:28:44;;;;;;;9.87;0.80;;;;;;;24.46;100.00;95414.56;5093232;28;20472;-58
2023/07/22 03:31:13;;;;;;;0.70;0.70;;;;;;;24.46;100.00;95411.84;5093102;28;21153;-57
2023/07/22 03:33:45;;;;;;;0.90;0.70;;;;;;;24.79;100.00;95422.28;5093144;28;20960;-60
2023/07/22 03:36:14;;;;;;;1.33;0.47;;;;;;;24.91;100.00;95421.34;5092882;28;20443;-58
2023/07/22 03:38:42;;;;;;;0.60;0.50;;;;;;;24.98;100.00;95416.84;5093422;28;20937;-58
2023/07/22 03:41:10;;;;;;;0.90;0.73;;;;;;;24.68;100.00;95404.16;5093242;28;20437;-58
2023/07/22 03:43:40;;;;;;;0.70;0.70;;;;;;;24.12;100.00;95411.88;5093369;28;20869;-58
2023/07/22 03:46:08;;;;;;;0.60;0.40;;;;;;;23.86;100.00;95421.31;5092752;28;20441;-57
2023/07/22 03:48:37;;;;;;;0.60;0.40;;;;;;;24.24;100.00;95414.44;5093366;28;20511;-57
2023/07/22 03:51:05;;;;;;;0.77;0.77;;;;;;;23.91;100.00;95409.41;5092515;28;20441;-59
2023/07/22 03:53:47;;;;;;;2.83;0.53;;;;;;;23.81;100.00;95408.03;5091699;28;20441;-58
2023/07/22 03:56:15;;;;;;;1.00;0.80;;;;;;;23.88;100.00;95410.91;5092739;28;20449;-58
2023/07/22 03:58:45;;;;;;;0.77;0.70;;;;;;;23.80;100.00;95413.81;5092509;28;20509;-58
2023/07/22 04:01:14;;;;;;;0.70;0.70;;;;;;;23.93;100.00;95416.03;5093306;28;20483;-58
2023/07/22 04:03:42;;;;;;;2.63;1.10;;;;;;;23.70;100.00;95420.53;5092540;28;20532;-58
2023/07/22 04:06:11;;;;;;;12.50;2.40;;;;;;;23.13;100.00;95412.06;5092893;28;20437;-58
2023/07/22 04:08:39;;;;;;;6.53;2.87;;;;;;;23.20;100.00;95420.34;5091905;28;20476;-58
2023/07/22 04:11:07;;;;;;;1.33;1.07;;;;;;;23.44;100.00;95427.59;5092995;28;20429;-58
2023/07/22 04:13:36;;;;;;;0.63;0.40;;;;;;;23.67;100.00;95429.34;5092439;28;20470;-58
2023/07/22 04:16:05;;;;;;;0.50;0.30;;;;;;;23.58;100.00;95439.53;5082100;28;20456;-58
2023/07/22 04:18:34;;;;;;;0.70;0.70;;;;;;;23.60;100.00;95431.88;5090032;28;20445;-58
2023/07/22 04:21:02;;;;;;;2.00;0.40;;;;;;;23.57;100.00;95438.00;5092723;28;20861;-58
2023/07/22 04:23:32;;;;;;;0.70;0.60;;;;;;;24.09;100.00;95442.34;5092305;28;20432;-58
2023/07/22 04:26:04;;;;;;;0.97;0.97;;;;;;;24.13;100.00;95441.31;5092361;28;21094;-58
2023/07/22 04:28:33;;;;;;;1.77;0.80;;;;;;;24.14;100.00;95437.44;5092736;28;20476;-58
2023/07/22 04:31:01;;;;;;;0.60;0.50;;;;;;;24.52;100.00;95431.34;5092037;28;20441;-58
2023/07/22 04:33:31;;;;;;;0.80;0.67;;;;;;;24.72;100.00;95432.91;5092373;28;20502;-58
2023/07/22 04:36:00;;;;;;;0.80;0.77;;;;;;;24.56;100.00;95440.34;5092567;28;20465;-58
2023/07/22 04:38:29;;;;;;;9.30;1.37;;;;;;;24.38;100.00;95452.72;5083515;28;20445;-58
2023/07/22 04:40:59;;;;;;;0.73;0.63;;;;;;;24.71;100.00;95436.00;5088714;28;20439;-58
2023/07/22 04:43:27;;;;;;;0.53;0.50;;;;;;;24.99;100.00;95440.09;5092181;28;20494;-58
2023/07/22 04:45:55;;;;;;;3.43;0.93;;;;;;;24.97;100.00;95431.53;5078927;28;20432;-59
2023/07/22 04:48:24;;;;;;;1.33;1.23;;;;;;;24.88;100.00;95422.84;5091944;28;20503;-58
2023/07/22 04:50:53;;;;;;;5.73;1.10;;;;;;;24.99;100.00;95425.75;5091478;28;20468;-59
2023/07/22 04:53:22;;;;;;;1.13;1.03;;;;;;;25.04;100.00;95399.13;5091818;28;20501;-58
2023/07/22 04:55:51;;;;;;;1.07;0.87;;;;;;;25.31;98.27;95421.72;5091610;28;20436;-58
2023/07/22 04:58:20;;;;;;;0.80;0.80;;;;;;;25.34;95.86;95421.00;5092052;28;20844;-58
2023/07/22 05:00:49;;;;;;;3.27;0.70;;;;;;;25.54;95.77;95419.03;5091397;28;20468;-58
2023/07/22 05:03:18;;;;;;;0.80;0.67;;;;;;;25.65;93.66;95415.34;5091212;28;20811;-56
2023/07/22 05:05:47;;;;;;;1.00;0.50;;;;;;;25.72;92.57;95425.56;5091827;28;20433;-53
2023/07/22 05:08:17;;;;;;;0.60;0.50;;;;;;;25.60;91.38;95429.22;5091923;28;20545;-53
2023/07/22 05:10:45;;;;;;;1.43;1.33;;;;;;;25.47;91.62;95422.44;5092220;28;20968;-53
2023/07/22 05:13:14;;;;;;;0.80;0.80;;;;;;;25.42;92.83;95432.75;5091109;28;20448;-53
2023/07/22 05:15:42;;;;;;;1.80;0.70;;;;;;;25.59;91.05;95438.53;5091403;28;20448;-54
2023/07/22 05:18:11;;;;;;;18.37;0.97;;;;;;;25.78;90.59;95432.25;5091244;28;20436;-54
2023/07/22 05:20:40;;;;;;;0.60;0.50;;;;;;;26.05;90.14;95435.78;5091808;28;20933;-54
2023/07/22 05:23:08;;;;;;;0.80;0.70;;;;;;;26.03;88.77;95435.38;5091861;28;20969;-54
2023/07/22 05:25:38;;;;;;;1.00;0.90;;;;;;;26.08;89.25;95419.56;5091738;28;20451;-54
2023/07/22 05:28:06;;;;;;;8.20;0.60;;;;;;;26.09;88.78;95421.09;5091690;28;20432;-54
2023/07/22 05:30:35;;;;;;;0.80;0.77;;;;;;;26.16;88.53;95423.97;5091696;28;20452;-55
2023/07/22 05:33:03;;;;;;;0.87;0.87;;;;;;;26.42;86.20;95432.13;5091529;28;20448;-54
2023/07/22 05:35:32;;;;;;;1.43;1.33;;;;;;;26.41;84.84;95429.78;5091251;28;20933;-54
2023/07/22 05:38:00;;;;;;;0.87;0.87;;;;;;;26.40;86.05;95423.56;5091847;28;20432;-55
2023/07/22 05:40:28;;;;;;;0.67;0.67;;;;;;;26.57;85.16;95435.00;5091548;28;20470;-55
2023/07/22 05:42:58;;;;;;;0.50;0.43;;;;;;;26.54;86.48;95427.63;5090949;28;20460;-55
2023/07/22 05:45:26;;;;;;;0.53;0.43;;;;;;;26.33;89.31;95418.03;5091942;28;20464;-55
2023/07/22 05:47:55;;;;;;;0.60;0.60;;;;;;;26.62;88.99;95421.09;5091057;28;20469;-55
2023/07/22 05:50:23;;;;;;;1.83;1.73;;;;;;;25.90;91.56;95415.00;5091736;28;20480;-55
2023/07/22 05:52:52;;;;;;;3.27;1.67;;;;;;;25.61;93.57;95427.31;5064579;28;20443;-56
2023/07/22 05:55:20;;;;;;;0.80;0.80;;;;;;;25.85;93.17;95426.94;5091072;28;20440;-56
2023/07/22 05:57:48;;;;;;;0.63;0.60;;;;;;;26.66;87.40;95414.56;5091162;28;20486;-56
2023/07/22 06:00:18;;;;;;;1.27;1.17;;;;;;;27.04;85.55;95410.78;5090864;28;20476;-56
2023/07/22 06:02:47;;;;;;;4.67;2.10;;;;;;;26.91;82.66;95414.91;5091229;28;20441;-55
2023/07/22 06:05:15;;;;;;;2.00;1.90;;;;;;;26.64;84.23;95405.97;5091169;28;20437;-56
2023/07/22 06:07:43;;;;;;;1.57;1.57;;;;;;;26.76;83.46;95410.41;5091677;28;20436;-56
2023/07/22 06:10:12;;;;;;;1.23;1.17;;;;;;;27.12;82.67;95414.38;5091013;28;20877;-56
2023/07/22 06:12:41;;;;;;;1.30;1.20;;;;;;;27.27;80.58;95419.59;5091781;28;20440;-56
2023/07/22 06:15:10;;;;;;;1.50;1.40;;;;;;;27.45;80.52;95427.97;5091254;28;20440;-57
2023/07/22 06:17:40;;;;;;;0.97;0.87;;;;;;;28.25;78.23;95424.41;5093166;28;20944;-57
2023/07/22 06:20:10;;;;;;;0.93;0.93;;;;;;;28.13;77.74;95416.53;5094844;28;20447;-57
2023/07/22 06:22:38;;;;;;;0.83;0.80;;;;;;;28.36;77.62;95421.75;5094910;28;20435;-57
2023/07/22 06:25:07;;;;;;;0.73;0.67;;;;;;;28.71;73.60;95425.50;5094484;28;20505;-57
2023/07/22 06:27:36;;;;;;;0.90;0.90;;;;;;;28.42;73.33;95421.00;5094827;28;20500;-55
2023/07/22 06:30:05;;;;;;;5.70;1.30;;;;;;;28.67;73.11;95424.66;5094367;28;20484;-55
2023/07/22 06:32:35;;;;;;;1.37;1.27;;;;;;;28.82;71.13;95363.56;5094180;28;20523;-55
2023/07/22 06:35:06;;;;;;;0.57;0.47;;;;;;;29.66;69.80;95405.09;5094410;28;20948;-55
2023/07/22 06:37:34;;;;;;;1.70;1.57;;;;;;;29.21;69.85;95417.50;5094231;28;20441;-57
2023/07/22 06:40:04;;;;;;;1.50;1.40;;;;;;;28.70;71.94;95420.41;5094478;28;20440;-56
2023/07/22 06:42:32;;;;;;;0.80;0.80;;;;;;;29.54;70.08;95409.78;5094312;28;20804;-55
2023/07/22 06:45:00;;;;;;;2.20;2.13;;;;;;;29.87;71.20;95389.53;5094853;28;20506;-55
2023/07/22 06:47:29;;;;;;;1.87;0.60;;;;;;;29.59;68.29;95403.16;5094049;28;20432;-55
2023/07/22 06:49:57;;;;;;;2.03;0.90;;;;;;;30.20;67.06;95382.88;5094403;28;20918;-55
2023/07/22 06:52:27;;;;;;;0.67;0.40;;;;;;;30.63;66.76;95402.75;5093532;28;20436;-55
2023/07/22 06:54:55;;;;;;;6.73;2.00;;;;;;;30.09;65.87;95410.22;5094279;28;20875;-55
2023/07/22 06:57:25;;;;;;;0.60;0.50;;;;;;;30.70;65.86;95403.50;5094174;28;20489;-55
2023/07/22 06:59:55;;;;;;;1.63;1.23;;;;;;;30.35;67.27;95403.59;5093639;28;20500;-55
2023/07/22 07:02:23;;;;;;;1.30;1.30;;;;;;;30.25;65.30;95343.41;5094380;28;20489;-56
2023/07/22 07:04:52;;;;;;;0.67;0.63;;;;;;;31.11;64.84;95402.97;5094439;28;20505;-55
2023/07/22 07:07:20;;;;;;;1.67;1.10;;;;;;;30.79;63.39;95409.31;5093825;28;20440;-56
2023/07/22 07:09:50;;;;;;;3.33;1.20;;;;;;;31.33;64.13;95394.25;5081314;28;20469;-55
2023/07/22 07:12:18;;;;;;;3.43;0.77;;;;;;;31.77;62.35;95399.06;5093959;28;20428;-55
2023/07/22 07:14:47;;;;;;;1.23;1.13;;;;;;;31.83;60.49;95397.44;5093156;28;20447;-55
2023/07/22 07:17:16;;;;;;;1.80;1.70;;;;;;;31.27;60.06;95398.56;5093588;28;20443;-55
2023/07/22 07:19:44;;;;;;;2.10;0.90;;;;;;;31.90;59.17;95397.38;5093729;28;20998;-55
2023/07/22 07:22:12;;;;;;;1.70;0.80;;;;;;;32.40;59.47;95381.28;5093627;28;20520;-55
2023/07/22 07:24:40;;;;;;;1.00;0.60;;;;;;;32.57;58.23;95385.06;5093020;28;20436;-55
2023/07/22 07:27:10;;;;;;;0.60;0.50;;;;;;;33.06;57.71;95389.22;5093901;28;20916;-55
2023/07/22 07:29:39;;;;;;;0.40;0.40;;;;;;;33.14;56.14;95391.44;5093260;28;20811;-55
2023/07/22 07:32:23;;;;;;;3.17;0.73;;;;;;;33.48;56.17;95387.84;5093584;28;20442;-55
2023/07/22 07:34:51;;;;;;;5.40;0.50;;;;;;;33.44;54.66;95387.91;5093611;28;20527;-55
2023/07/22 07:37:20;;;;;;;1.27;0.93;;;;;;;33.25;54.62;95386.59;5093347;28;20960;-58
2023/07/22 07:39:48;;;;;;;1.50;0.63;;;;;;;33.49;53.93;95395.69;5093481;28;20519;-55
2023/07/22 07:42:18;;;;;;;0.80;0.80;;;;;;;32.93;54.31;95386.22;5092769;28;20439;-54
2023/07/22 07:44:47;;;;;;;2.50;2.30;;;;;;;33.35;53.46;95386.84;5067319;28;20444;-54
2023/07/22 07:47:15;;;;;;;1.67;1.60;;;;;;;33.46;52.86;95388.28;5093246;28;20485;-54
2023/07/22 07:49:43;;;;;;;1.57;0.60;;;;;;;33.23;53.05;95394.47;5093009;28;20478;-54
2023/07/22 07:52:12;;;;;;;1.20;1.13;;;;;;;32.77;52.73;95396.19;5092941;28;20936;-54
2023/07/22 07:54:40;;;;;;;5.80;1.67;;;;;;;32.83;54.78;95395.34;5093338;28;20508;-54
2023/07/22 07:57:08;;;;;;;0.53;0.53;;;;;;;33.56;52.67;95392.09;5092663;28;20432;-55
2023/07/22 07:59:38;;;;;;;1.07;0.97;;;;;;;34.11;53.60;95391.63;5093224;28;20495;-54
2023/07/22 08:02:10;;;;;;;0.63;0.57;;;;;;;34.39;51.58;95389.16;5092911;28;20447;-54
2023/07/22 08:04:38;;;;;;;1.57;1.00;;;;;;;34.31;51.37;95392.47;5092624;28;20981;-54
2023/07/22 08:07:07;;;;;;;0.70;0.60;;;;;;;34.59;52.12;95380.97;5092240;28;20912;-53
2023/07/22 08:09:36;;;;;;;0.77;0.57;;;;;;;35.15;50.01;95386.56;5092237;28;20439;-53
2023/07/22 08:12:05;;;;;;;0.77;0.77;;;;;;;34.72;51.02;95379.13;5092813;28;20789;-54
2023/07/22 08:14:33;;;;;;;3.80;0.80;;;;;;;34.75;49.70;95358.25;5092737;28;20932;-54
2023/07/22 08:17:03;;;;;;;0.80;0.80;;;;;;;34.48;50.42;95378.38;5092651;28;20436;-54
2023/07/22 08:19:32;;;;;;;0.60;0.60;;;;;;;34.82;50.67;95375.41;5092203;28;20436;-54
2023/07/22 08:22:00;;;;;;;0.80;0.67;;;;;;;35.46;49.15;95374.06;5092181;28;20943;-53
2023/07/22 08:24:28;;;;;;;0.60;0.60;;;;;;;35.82;47.58;95372.06;5092472;28;20513;-53
2023/07/22 08:26:57;;;;;;;3.63;1.23;;;;;;;35.44;47.84;95370.97;5092528;28;20928;-53
2023/07/22 08:29:25;;;;;;;0.80;0.60;;;;;;;35.64;48.64;95374.47;5092089;28;20481;-53
2023/07/22 08:31:53;;;;;;;1.03;0.70;;;;;;;35.83;48.97;95370.06;5092355;28;20678;-54
2023/07/22 08:34:23;;;;;;;3.50;0.63;;;;;;;35.67;48.99;95360.56;5092149;28;20197;-54
2023/07/22 08:36:52;;;;;;;0.70;0.70;;;;;;;35.39;49.03;95349.44;5092384;28;20486;-54
2023/07/22 08:39:20;;;;;;;1.20;0.93;;;;;;;35.39;47.61;95361.22;5091456;28;20193;-54
2023/07/22 08:41:51;;;;;;;0.73;0.70;;;;;;;35.72;47.06;95360.06;5091611;28;20193;-53
2023/07/22 08:44:20;;;;;;;0.80;0.50;;;;;;;36.67;45.99;95350.59;5092588;28;20201;-54
2023/07/22 08:46:57;;;;;;;12.50;0.60;;;;;;;37.16;45.16;95342.88;5091973;28;20194;-54
2023/07/22 08:49:27;;;;;;;0.70;0.57;;;;;;;36.92;45.84;95345.13;5091380;28;20193;-54
2023/07/22 08:51:57;;;;;;;10.40;1.77;;;;;;;37.04;45.84;95325.06;5080569;28;20268;-53
2023/07/22 08:54:26;;;;;;;1.60;1.10;;;;;;;36.76;44.40;95339.69;5091376;28;20658;-54
2023/07/22 08:56:54;;;;;;;1.00;1.00;;;;;;;36.78;43.87;95343.56;5092284;28;20205;-54
2023/07/22 08:59:23;;;;;;;0.77;0.77;;;;;;;35.92;45.82;95339.91;5065539;28;20279;-55
2023/07/22 09:01:52;;;;;;;0.90;0.90;;;;;;;36.24;45.90;95339.88;5091934;28;20206;-55
2023/07/22 09:04:21;;;;;;;1.50;1.40;;;;;;;36.08;44.89;95335.16;5092042;28;20266;-55
2023/07/22 09:06:52;;;;;;;1.17;1.07;;;;;;;37.16;43.89;95340.13;5091401;28;20207;-55
2023/07/22 09:09:20;;;;;;;0.40;0.40;;;;;;;37.97;42.47;95341.16;5091598;28;20254;-55
2023/07/22 09:11:49;;;;;;;0.40;0.35;;;;;;;38.72;41.99;95331.81;5091436;28;20217;-55
2023/07/22 09:14:20;;;;;;;0.50;0.40;;;;;;;38.50;41.10;95328.28;5091982;28;20194;-55
2023/07/22 09:17:05;;;;;;;1.30;0.98;;;;;;;37.18;42.52;95323.88;5091545;28;20672;-55
2023/07/22 09:19:33;;;;;;;0.90;0.90;;;;;;;36.97;43.82;95333.56;5091802;28;20217;-55
2023/07/22 09:22:03;;;;;;;1.90;1.80;;;;;;;37.33;44.52;95331.28;5091779;28;20193;-55
2023/07/22 09:24:31;;;;;;;1.30;1.20;;;;;;;36.86;45.71;95330.31;5091820;28;20262;-55
2023/07/22 09:27:00;;;;;;;0.52;0.52;;;;;;;37.92;46.38;95324.34;5091798;28;20204;-55
2023/07/22 09:29:35;;;;;;;0.63;0.52;;;;;;;38.27;42.62;95320.34;5091611;28;20194;-55
2023/07/22 09:32:04;;;;;;;1.52;1.42;;;;;;;37.02;43.43;95327.50;5082435;28;20213;-58
2023/07/22 09:34:33;;;;;;;1.27;1.02;;;;;;;37.87;42.52;95325.69;5087452;28;20330;-55
2023/07/22 09:37:05;;;;;;;1.52;1.10;;;;;;;38.32;40.81;95325.34;5091863;28;20549;-56
2023/07/22 09:39:36;;;;;;;0.90;0.90;;;;;;;39.07;39.90;95317.88;5091713;28;20565;-53
2023/07/22 09:42:05;;;;;;;2.95;1.35;;;;;;;38.42;38.80;95317.88;5092029;28;20201;-53
2023/07/22 09:44:36;;;;;;;11.27;1.08;;;;;;;37.87;40.75;95309.06;5091133;28;20250;-53
2023/07/22 09:47:09;;;;;;;3.80;1.70;;;;;;;37.52;40.54;95313.72;5091397;28;20201;-53
2023/07/22 09:49:42;;;;;;;1.10;1.10;;;;;;;38.41;40.17;95299.72;5091432;28;20281;-53
2023/07/22 09:52:13;;;;;;;2.15;1.75;;;;;;;38.67;41.25;95301.91;5094228;28;20628;-53
2023/07/22 09:54:49;;;;;;;0.50;0.50;;;;;;;39.44;40.43;95294.69;5094959;28;20650;-53
2023/07/22 09:57:17;;;;;;;3.92;1.05;;;;;;;39.83;40.03;95287.56;5095415;28;20209;-53
2023/07/22 09:59:48;;;;;;;0.73;0.57;;;;;;;39.12;40.52;95289.56;5095269;28;20274;-54
2023/07/22 10:02:20;;;;;;;12.20;0.50;;;;;;;38.95;39.41;95285.50;5094993;28;20189;-53
2023/07/22 10:04:52;;;;;;;8.27;1.30;;;;;;;39.58;42.06;95279.47;5095665;28;20198;-52
2023/07/22 10:07:23;;;;;;;3.15;3.05;;;;;;;39.43;39.97;95276.50;5095406;28;20193;-52
2023/07/22 10:09:55;;;;;;;0.98;0.88;;;;;;;40.18;40.72;95280.53;5095440;28;20646;-53
2023/07/22 10:12:24;;;;;;;4.53;1.05;;;;;;;39.92;38.77;95271.69;5095002;28;20215;-52
2023/07/22 10:14:54;;;;;;;0.40;0.40;;;;;;;39.77;38.04;95223.56;5094809;28;20204;-52
2023/07/22 10:17:23;;;;;;;0.95;0.85;;;;;;;39.80;37.96;95266.28;5095055;28;20251;-53
2023/07/22 10:19:53;;;;;;;0.90;0.90;;;;;;;39.74;37.56;95257.03;5094325;28;20686;-52
2023/07/22 10:22:23;;;;;;;1.15;1.15;;;;;;;40.14;36.83;95256.94;5094948;28;20197;-53
2023/07/22 10:24:54;;;;;;;3.30;1.45;;;;;;;40.30;38.82;95264.97;5094736;28;20186;-52
2023/07/22 10:27:24;;;;;;;0.85;0.80;;;;;;;39.94;37.01;95249.03;5094917;28;20197;-52
2023/07/22 10:29:55;;;;;;;0.57;0.50;;;;;;;40.69;37.48;95260.44;5094511;28;20197;-52
2023/07/22 10:32:23;;;;;;;0.50;0.40;;;;;;;41.09;38.07;95256.19;5094711;28;20292;-52
2023/07/22 10:34:52;;;;;;;0.75;0.75;;;;;;;41.10;36.07;95252.19;5094804;28;20194;-52
2023/07/22 10:37:24;;;;;;;1.52;0.60;;;;;;;41.24;35.48;95247.94;5094393;28;20205;-52
2023/07/22 10:39:52;;;;;;;0.80;0.80;;;;;;;40.84;34.25;95245.44;5067922;28;20190;-52
2023/07/22 10:42:25;;;;;;;0.68;0.68;;;;;;;41.39;34.94;95239.75;5093897;28;20262;-52
2023/07/22 10:44:54;;;;;;;0.63;0.43;;;;;;;41.38;36.69;95232.63;5093659;28;20186;-52
2023/07/22 10:47:36;;;;;;;0.38;0.35;;;;;;;41.63;33.47;95230.16;5094279;28;20194;-52
2023/07/22 10:50:09;;;;;;;0.40;0.30;;;;;;;41.86;35.08;95239.78;5094113;28;20227;-55
2023/07/22 10:52:46;;;;;;;0.57;0.40;;;;;;;41.07;33.72;95230.88;5090462;28;20213;-55
2023/07/22 10:55:16;;;;;;;1.17;0.75;;;;;;;41.17;33.31;95228.81;5086697;28;20205;-49
2023/07/22 10:57:52;;;;;;;0.40;0.38;;;;;;;41.44;33.99;95220.38;5068233;28;20294;-49
2023/07/22 11:00:22;;;;;;;0.65;0.40;;;;;;;42.08;35.71;95217.16;5093657;28;20236;-49
2023/07/22 11:03:12;;;;;;;0.50;0.50;;;;;;;42.35;33.99;95216.97;5093539;28;20193;-49
2023/07/22 11:05:52;;;;;;;0.73;0.73;;;;;;;41.83;32.07;95215.66;5093633;28;20233;-49
2023/07/22 11:08:38;;;;;;;0.50;0.40;;;;;;;42.20;33.27;95168.84;5093896;28;20197;-49
2023/07/22 11:11:07;;;;;;;0.68;0.40;;;;;;;42.07;33.69;95210.06;5093832;28;20247;-49
2023/07/22 11:13:42;;;;;;;1.52;0.95;;;;;;;41.16;33.30;95197.44;5093624;28;20201;-49
2023/07/22 11:16:12;;;;;;;1.08;0.57;;;;;;;41.16;35.80;95205.06;5093382;28;20193;-49
2023/07/22 11:18:42;;;;;;;1.27;0.50;;;;;;;40.93;36.10;95200.97;5093136;28;20201;-49
2023/07/22 11:21:11;;;;;;;0.80;0.80;;;;;;;41.86;34.30;95195.22;5092264;28;20197;-49
2023/07/22 11:23:41;;;;;;;2.00;0.57;;;;;;;42.33;33.23;95195.16;5093680;28;20198;-49
2023/07/22 11:26:09;;;;;;;0.68;0.52;;;;;;;42.49;33.69;95195.94;5093896;28;20654;-49
2023/07/22 11:28:38;;;;;;;1.15;0.30;;;;;;;42.07;34.54;95198.94;5093880;28;20650;-49
2023/07/22 11:31:06;;;;;;;1.08;0.98;;;;;;;42.17;32.09;95159.41;5093726;28;20575;-49
2023/07/22 11:33:43;;;;;;;1.27;1.17;;;;;;;41.63;31.88;95163.34;5093413;28;20217;-49
2023/07/22 11:36:12;;;;;;;0.88;0.88;;;;;;;41.54;33.64;95182.16;5092760;28;20283;-49
2023/07/22 11:38:42;;;;;;;2.45;1.13;;;;;;;41.55;32.23;95183.66;5093231;28;20254;-49
2023/07/22 11:41:11;;;;;;;0.32;0.32;;;;;;;42.03;29.89;95179.63;5092993;28;20337;-49
2023/07/22 11:43:40;;;;;;;0.75;0.75;;;;;;;42.57;29.06;95174.81;5093305;28;20209;-49